sensor_id;sensor_type;location;lat;lon;timestamp;P1;P2;P0
76045;PMS7003;64741;41.730;44.788;2022-11-15T00:04:43;0;0;0
76045;PMS7003;64741;41.730;44.788;2022-11-15T00:09:41;0;0;0
76045;PMS7003;64741;41.730;44.788;2022-11-15T00:14:43;0;0;0
76045;PMS7003;64741;41.730;44.788;2022-11-15T00:19:39;0;0;0
76045;PMS7003;64741;41.730;44.788;2022-11-15T00:24:43;0;0;0
76045;PMS7003;64741;41.730;44.788;2022-11-15T00:29:39;0;0;0
76045;PMS7003;64741;41.730;44.788;2022-11-15T00:34:41;0;0;0
76045;PMS7003;64741;41.730;44.788;2022-11-15T00:39:39;0;0;0
76045;PMS7003;64741;41.730;44.788;2022-11-15T00:44:43;0;0;0
76045;PMS7003;64741;41.730;44.788;2022-11-15T00:49:29;0;0;0
76045;PMS7003;64741;41.730;44.788;2022-11-15T00:54:45;0;0;0
76045;PMS7003;64741;41.730;44.788;2022-11-15T00:59:41;0.2;0.2;0
76045;PMS7003;64741;41.730;44.788;2022-11-15T01:04:39;0;0;0
76045;PMS7003;64741;41.730;44.788;2022-11-15T01:09:37;0;0;0
76045;PMS7003;64741;41.730;44.788;2022-11-15T01:14:43;0;0;0
76045;PMS7003;64741;41.730;44.788;2022-11-15T01:19:45;0;0;0
76045;PMS7003;64741;41.730;44.788;2022-11-15T01:24:43;0;0;0
76045;PMS7003;64741;41.730;44.788;2022-11-15T01:29:45;0;0;0
76045;PMS7003;64741;41.730;44.788;2022-11-15T01:34:43;0;0;0
76045;PMS7003;64741;41.730;44.788;2022-11-15T01:39:47;0;0;0
76045;PMS7003;64741;41.730;44.788;2022-11-15T01:44:42;0;0;0
76045;PMS7003;64741;41.730;44.788;2022-11-15T01:49:49;0;0;0
76045;PMS7003;64741;41.730;44.788;2022-11-15T01:54:41;0;0;0
76045;PMS7003;64741;41.730;44.788;2022-11-15T01:59:45;0;0;0
76045;PMS7003;64741;41.730;44.788;2022-11-15T02:04:47;0;0;0
76045;PMS7003;64741;41.730;44.788;2022-11-15T02:09:49;0;0;0
76045;PMS7003;64741;41.730;44.788;2022-11-15T02:14:47;0;0;0
76045;PMS7003;64741;41.730;44.788;2022-11-15T02:19:51;0;0;0
76045;PMS7003;64741;41.730;44.788;2022-11-15T02:24:06;0;0;0
76045;PMS7003;64741;41.730;44.788;2022-11-15T02:29:53;0;0;0
76045;PMS7003;64741;41.730;44.788;2022-11-15T02:34:50;0;0;0
76045;PMS7003;64741;41.730;44.788;2022-11-15T02:39:46;0;0;0
76045;PMS7003;64741;41.730;44.788;2022-11-15T02:44:49;0;0;0
76045;PMS7003;64741;41.730;44.788;2022-11-15T02:49:43;0;0;0
76045;PMS7003;64741;41.730;44.788;2022-11-15T02:54:52;0;0;0
76045;PMS7003;64741;41.730;44.788;2022-11-15T02:59:48;0;0;0
76045;PMS7003;64741;41.730;44.788;2022-11-15T03:04:46;0;0;0
76045;PMS7003;64741;41.730;44.788;2022-11-15T03:09:33;0;0;0
76045;PMS7003;64741;41.730;44.788;2022-11-15T03:14:48;0;0;0
76045;PMS7003;64741;41.730;44.788;2022-11-15T03:19:47;0;0;0
76045;PMS7003;64741;41.730;44.788;2022-11-15T03:24:50;0;0;0
76045;PMS7003;64741;41.730;44.788;2022-11-15T03:29:45;0;0;0
76045;PMS7003;64741;41.730;44.788;2022-11-15T03:34:47;0;0;0
76045;PMS7003;64741;41.730;44.788;2022-11-15T03:39:43;0;0;0
76045;PMS7003;64741;41.730;44.788;2022-11-15T03:44:49;0;0;0
76045;PMS7003;64741;41.730;44.788;2022-11-15T03:49:42;0;0;0
76045;PMS7003;64741;41.730;44.788;2022-11-15T03:54:47;0.2;0.2;0
76045;PMS7003;64741;41.730;44.788;2022-11-15T03:59:43;0;0;0
76045;PMS7003;64741;41.730;44.788;2022-11-15T04:04:47;0;0;0
76045;PMS7003;64741;41.730;44.788;2022-11-15T04:09:45;0;0;0
76045;PMS7003;64741;41.730;44.788;2022-11-15T04:14:43;0;0;0
76045;PMS7003;64741;41.730;44.788;2022-11-15T04:19:29;0;0;0
76045;PMS7003;64741;41.730;44.788;2022-11-15T04:24:41;0;0;0
76045;PMS7003;64741;41.730;44.788;2022-11-15T04:29:47;0;0;0
76045;PMS7003;64741;41.730;44.788;2022-11-15T04:34:45;0;0;0
76045;PMS7003;64741;41.730;44.788;2022-11-15T04:39:47;0;0;0
76045;PMS7003;64741;41.730;44.788;2022-11-15T04:44:45;0;0;0
76045;PMS7003;64741;41.730;44.788;2022-11-15T04:49:31;0;0;0
76045;PMS7003;64741;41.730;44.788;2022-11-15T04:54:39;0;0;0
76045;PMS7003;64741;41.730;44.788;2022-11-15T04:59:43;0;0;0
76045;PMS7003;64741;41.730;44.788;2022-11-15T05:04:41;0;0;0
76045;PMS7003;64741;41.730;44.788;2022-11-15T05:09:45;0;0;0
76045;PMS7003;64741;41.730;44.788;2022-11-15T05:14:43;0;0;0
76045;PMS7003;64741;41.730;44.788;2022-11-15T05:19:29;0;0;0
76045;PMS7003;64741;41.730;44.788;2022-11-15T05:24:45;0;0;0
76045;PMS7003;64741;41.730;44.788;2022-11-15T05:29:41;0;0;0
76045;PMS7003;64741;41.730;44.788;2022-11-15T05:34:45;0;0;0
76045;PMS7003;64741;41.730;44.788;2022-11-15T05:39:45;0;0;0
76045;PMS7003;64741;41.730;44.788;2022-11-15T05:44:47;0.4;0;0
76045;PMS7003;64741;41.730;44.788;2022-11-15T05:49:45;0;0;0
76045;PMS7003;64741;41.730;44.788;2022-11-15T05:54:45;0;0;0
76045;PMS7003;64741;41.730;44.788;2022-11-15T05:59:27;0;0;0
76045;PMS7003;64741;41.730;44.788;2022-11-15T06:04:45;0;0;0
76045;PMS7003;64741;41.730;44.788;2022-11-15T06:09:43;0;0;0
76045;PMS7003;64741;41.730;44.788;2022-11-15T06:14:45;0;0;0
76045;PMS7003;64741;41.730;44.788;2022-11-15T06:19:43;0;0;0
76045;PMS7003;64741;41.730;44.788;2022-11-15T06:24:43;1.2;1.2;0.6
76045;PMS7003;64741;41.730;44.788;2022-11-15T06:29:39;3.6;2.4;1.8
76045;PMS7003;64741;41.730;44.788;2022-11-15T06:34:43;6.6;5.6;4.2
76045;PMS7003;64741;41.730;44.788;2022-11-15T06:39:41;10.4;8.8;6
76045;PMS7003;64741;41.730;44.788;2022-11-15T06:44:41;10.2;9.4;6.8
76045;PMS7003;64741;41.730;44.788;2022-11-15T06:49:41;8.8;8;5.4
76045;PMS7003;64741;41.730;44.788;2022-11-15T06:54:41;10.4;8.4;6.4
76045;PMS7003;64741;41.730;44.788;2022-11-15T06:59:41;8;7;5.8
76045;PMS7003;64741;41.730;44.788;2022-11-15T07:04:43;7.2;6.2;5
76045;PMS7003;64741;41.730;44.788;2022-11-15T07:09:45;6.6;6.2;5
76045;PMS7003;64741;41.730;44.788;2022-11-15T07:14:41;6.6;5.8;4.2
76045;PMS7003;64741;41.730;44.788;2022-11-15T07:19:41;5.6;5.4;3.8
76045;PMS7003;64741;41.730;44.788;2022-11-15T07:24:41;5.2;3.8;2.8
76045;PMS7003;64741;41.730;44.788;2022-11-15T07:29:31;4.6;4;2.6
76045;PMS7003;64741;41.730;44.788;2022-11-15T07:34:41;4;3.6;2.6
76045;PMS7003;64741;41.730;44.788;2022-11-15T07:39:43;4;3.6;2.4
76045;PMS7003;64741;41.730;44.788;2022-11-15T07:44:43;3.8;2.5;1.8
76045;PMS7003;64741;41.730;44.788;2022-11-15T07:49:47;3;2;1.4
76045;PMS7003;64741;41.730;44.788;2022-11-15T07:54:45;1.8;1.4;0.8
76045;PMS7003;64741;41.730;44.788;2022-11-15T07:59:39;1.6;1.2;0.4
76045;PMS7003;64741;41.730;44.788;2022-11-15T08:04:39;1;0.8;0.4
76045;PMS7003;64741;41.730;44.788;2022-11-15T08:09:43;1.8;0.8;0.2
76045;PMS7003;64741;41.730;44.788;2022-11-15T08:14:41;1.6;1;0.4
76045;PMS7003;64741;41.730;44.788;2022-11-15T08:19:43;1;0.6;0
76045;PMS7003;64741;41.730;44.788;2022-11-15T08:24:43;1.2;0;0
76045;PMS7003;64741;41.730;44.788;2022-11-15T08:29:43;0.4;0.4;0
76045;PMS7003;64741;41.730;44.788;2022-11-15T08:34:43;5;3.8;3
76045;PMS7003;64741;41.730;44.788;2022-11-15T08:39:41;6;4.8;4
76045;PMS7003;64741;41.730;44.788;2022-11-15T08:44:43;4.4;4;2.2
76045;PMS7003;64741;41.730;44.788;2022-11-15T08:49:41;4.2;3.4;2.4
76045;PMS7003;64741;41.730;44.788;2022-11-15T08:54:43;2.8;2.4;1.2
76045;PMS7003;64741;41.730;44.788;2022-11-15T08:59:41;1.8;1.8;1.2
76045;PMS7003;64741;41.730;44.788;2022-11-15T09:04:25;1.2;1.2;0.8
76045;PMS7003;64741;41.730;44.788;2022-11-15T09:09:41;1.6;1.6;0.4
76045;PMS7003;64741;41.730;44.788;2022-11-15T09:14:41;2.2;1.6;0.8
76045;PMS7003;64741;41.730;44.788;2022-11-15T09:19:41;1;0.8;0.4
76045;PMS7003;64741;41.730;44.788;2022-11-15T09:24:33;1.6;0.8;0.2
76045;PMS7003;64741;41.730;44.788;2022-11-15T09:29:43;1.4;0.6;0
76045;PMS7003;64741;41.730;44.788;2022-11-15T09:34:43;1.6;1;0.2
76045;PMS7003;64741;41.730;44.788;2022-11-15T09:39:43;0.4;0.4;0
76045;PMS7003;64741;41.730;44.788;2022-11-15T09:44:38;0;0;0
76045;PMS7003;64741;41.730;44.788;2022-11-15T09:49:43;1.6;0.8;0.4
76045;PMS7003;64741;41.730;44.788;2022-11-15T09:54:39;0.8;0.2;0
76045;PMS7003;64741;41.730;44.788;2022-11-15T09:59:49;1.2;0.4;0.2
76045;PMS7003;64741;41.730;44.788;2022-11-15T10:04:41;0;0;0
76045;PMS7003;64741;41.730;44.788;2022-11-15T10:09:19;0.8;0;0
76045;PMS7003;64741;41.730;44.788;2022-11-15T10:14:41;0.4;0;0
76045;PMS7003;64741;41.730;44.788;2022-11-15T10:19:45;0.4;0.2;0
76045;PMS7003;64741;41.730;44.788;2022-11-15T10:24:42;0.4;0;0
76045;PMS7003;64741;41.730;44.788;2022-11-15T10:29:42;0.2;0.2;0
76045;PMS7003;64741;41.730;44.788;2022-11-15T10:34:43;0;0;0
76045;PMS7003;64741;41.730;44.788;2022-11-15T10:39:49;0.2;0;0
76045;PMS7003;64741;41.730;44.788;2022-11-15T10:44:45;0.4;0.2;0
76045;PMS7003;64741;41.730;44.788;2022-11-15T10:49:41;0;0;0
76045;PMS7003;64741;41.730;44.788;2022-11-15T10:54:45;0.2;0.2;0
76045;PMS7003;64741;41.730;44.788;2022-11-15T10:59:44;0.2;0.2;0.2
76045;PMS7003;64741;41.730;44.788;2022-11-15T11:04:48;0.6;0;0
76045;PMS7003;64741;41.730;44.788;2022-11-15T11:09:41;0.2;0.2;0.2
76045;PMS7003;64741;41.730;44.788;2022-11-15T11:14:43;0;0;0
76045;PMS7003;64741;41.730;44.788;2022-11-15T11:19:33;0.2;0;0
76045;PMS7003;64741;41.730;44.788;2022-11-15T11:24:44;0.2;0.2;0
76045;PMS7003;64741;41.730;44.788;2022-11-15T11:29:46;0.6;0;0
76045;PMS7003;64741;41.730;44.788;2022-11-15T11:34:11;0;0;0
76045;PMS7003;64741;41.730;44.788;2022-11-15T11:39:45;0;0;0
76045;PMS7003;64741;41.730;44.788;2022-11-15T11:44:46;0.2;0;0
76045;PMS7003;64741;41.730;44.788;2022-11-15T11:49:43;0;0;0
76045;PMS7003;64741;41.730;44.788;2022-11-15T11:54:47;0.6;0;0
76045;PMS7003;64741;41.730;44.788;2022-11-15T11:59:47;0.2;0;0
76045;PMS7003;64741;41.730;44.788;2022-11-15T12:04:36;0.6;0.2;0
76045;PMS7003;64741;41.730;44.788;2022-11-15T12:09:46;0;0;0
76045;PMS7003;64741;41.730;44.788;2022-11-15T12:14:44;0;0;0
76045;PMS7003;64741;41.730;44.788;2022-11-15T12:19:29;0.2;0.2;0.2
76045;PMS7003;64741;41.730;44.788;2022-11-15T12:24:48;0;0;0
76045;PMS7003;64741;41.730;44.788;2022-11-15T12:29:44;2;1.2;0.8
76045;PMS7003;64741;41.730;44.788;2022-11-15T12:34:43;34.2;27.2;17.4
76045;PMS7003;64741;41.730;44.788;2022-11-15T12:40:16;48.4;36.8;23.8
76045;PMS7003;64741;41.730;44.788;2022-11-15T12:44:55;44.4;35.8;23.6
76045;PMS7003;64741;41.730;44.788;2022-11-15T12:49:47;45;35.6;23.4
76045;PMS7003;64741;41.730;44.788;2022-11-15T12:54:55;44.5;32.8;22.8
76045;PMS7003;64741;41.730;44.788;2022-11-15T12:59:56;42.6;34.8;22.8
76045;PMS7003;64741;41.730;44.788;2022-11-15T13:04:39;40;32.8;21.8
76045;PMS7003;64741;41.730;44.788;2022-11-15T13:10:01;39.6;32.2;21
76045;PMS7003;64741;41.730;44.788;2022-11-15T13:14:46;34;29.4;19.4
76045;PMS7003;64741;41.730;44.788;2022-11-15T13:19:47;32;27;19.4
76045;PMS7003;64741;41.730;44.788;2022-11-15T13:24:45;32.4;26.6;18.4
76045;PMS7003;64741;41.730;44.788;2022-11-15T13:29:42;31.2;25.6;18.4
76045;PMS7003;64741;41.730;44.788;2022-11-15T13:34:43;28.8;24.2;17.2
76045;PMS7003;64741;41.730;44.788;2022-11-15T13:39:43;24.2;21.4;15.4
76045;PMS7003;64741;41.730;44.788;2022-11-15T13:44:54;24.2;21;15.8
76045;PMS7003;64741;41.730;44.788;2022-11-15T13:49:43;24;18.8;13.8
76045;PMS7003;64741;41.730;44.788;2022-11-15T13:54:46;21.6;18;12.6
76045;PMS7003;64741;41.730;44.788;2022-11-15T13:59:46;19.6;16.8;12.6
76045;PMS7003;64741;41.730;44.788;2022-11-15T14:04:48;17.6;15.2;10.4
76045;PMS7003;64741;41.730;44.788;2022-11-15T14:09:47;17.4;15;10.6
76045;PMS7003;64741;41.730;44.788;2022-11-15T14:14:44;18.2;16;11
76045;PMS7003;64741;41.730;44.788;2022-11-15T14:19:43;14.4;13.4;9.6
76045;PMS7003;64741;41.730;44.788;2022-11-15T14:24:42;15.8;13.8;10
76045;PMS7003;64741;41.730;44.788;2022-11-15T14:29:47;13.6;11.6;9
76045;PMS7003;64741;41.730;44.788;2022-11-15T14:34:45;14.6;12;8.2
76045;PMS7003;64741;41.730;44.788;2022-11-15T14:39:45;12.2;10.8;7.4
76045;PMS7003;64741;41.730;44.788;2022-11-15T14:44:43;10.6;9;6.6
76045;PMS7003;64741;41.730;44.788;2022-11-15T14:49:45;13.8;9.8;7
76045;PMS7003;64741;41.730;44.788;2022-11-15T14:54:45;9;6.8;4.8
76045;PMS7003;64741;41.730;44.788;2022-11-15T14:59:43;8.8;8.2;6
76045;PMS7003;64741;41.730;44.788;2022-11-15T15:04:41;8.6;7.8;4.8
76045;PMS7003;64741;41.730;44.788;2022-11-15T15:09:45;9.6;7.8;5.2
76045;PMS7003;64741;41.730;44.788;2022-11-15T15:14:43;8.6;8;5.8
76045;PMS7003;64741;41.730;44.788;2022-11-15T15:19:45;8.4;6.8;4.6
76045;PMS7003;64741;41.730;44.788;2022-11-15T15:24:45;8.6;6.4;4.2
76045;PMS7003;64741;41.730;44.788;2022-11-15T15:29:39;6.4;6;4.2
76045;PMS7003;64741;41.730;44.788;2022-11-15T15:34:41;5.6;5.2;3.4
76045;PMS7003;64741;41.730;44.788;2022-11-15T15:39:41;5.6;5.4;4
76045;PMS7003;64741;41.730;44.788;2022-11-15T15:44:47;7.8;6;4.6
76045;PMS7003;64741;41.730;44.788;2022-11-15T15:49:43;6.6;5;3.6
76045;PMS7003;64741;41.730;44.788;2022-11-15T15:54:31;7;5;3.6
76045;PMS7003;64741;41.730;44.788;2022-11-15T15:59:41;5.6;5;3.8
76045;PMS7003;64741;41.730;44.788;2022-11-15T16:04:41;6.8;5;3.2
76045;PMS7003;64741;41.730;44.788;2022-11-15T16:09:39;5;4;3
76045;PMS7003;64741;41.730;44.788;2022-11-15T16:14:45;5.2;4.6;3
76045;PMS7003;64741;41.730;44.788;2022-11-15T16:19:47;5;3.8;2.6
76045;PMS7003;64741;41.730;44.788;2022-11-15T16:24:47;4;3;2.2
76045;PMS7003;64741;41.730;44.788;2022-11-15T16:29:43;4.8;3.8;2.4
76045;PMS7003;64741;41.730;44.788;2022-11-15T16:34:45;4;2.8;2.2
76045;PMS7003;64741;41.730;44.788;2022-11-15T16:39:45;3;2.4;2
76045;PMS7003;64741;41.730;44.788;2022-11-15T16:44:45;3;2.4;1.2
76045;PMS7003;64741;41.730;44.788;2022-11-15T16:49:45;4.8;3.6;2.4
76045;PMS7003;64741;41.730;44.788;2022-11-15T16:54:45;3.4;3;2
76045;PMS7003;64741;41.730;44.788;2022-11-15T16:59:39;3.6;3.4;2
76045;PMS7003;64741;41.730;44.788;2022-11-15T17:04:47;4.4;3.2;2.2
76045;PMS7003;64741;41.730;44.788;2022-11-15T17:09:31;4.2;3;2.2
76045;PMS7003;64741;41.730;44.788;2022-11-15T17:14:47;3.4;2.8;2
76045;PMS7003;64741;41.730;44.788;2022-11-15T17:19:41;3.8;3.2;2.4
76045;PMS7003;64741;41.730;44.788;2022-11-15T17:24:41;3.4;3.2;2.4
76045;PMS7003;64741;41.730;44.788;2022-11-15T17:29:45;4.4;3.8;2.6
76045;PMS7003;64741;41.730;44.788;2022-11-15T17:34:47;5.4;3.4;2.4
76045;PMS7003;64741;41.730;44.788;2022-11-15T17:39:47;3.6;2.8;1.8
76045;PMS7003;64741;41.730;44.788;2022-11-15T17:44:35;4.2;3.6;2
76045;PMS7003;64741;41.730;44.788;2022-11-15T17:49:45;3.2;3;2.4
76045;PMS7003;64741;41.730;44.788;2022-11-15T17:54:45;3.3;2.5;2
76045;PMS7003;64741;41.730;44.788;2022-11-15T17:59:43;4.2;3.8;2.8
76045;PMS7003;64741;41.730;44.788;2022-11-15T18:04:41;3.3;2.8;1.8
76045;PMS7003;64741;41.730;44.788;2022-11-15T18:09:45;3.2;2.8;2.2
76045;PMS7003;64741;41.730;44.788;2022-11-15T18:14:43;3.4;3.2;2.4
76045;PMS7003;64741;41.730;44.788;2022-11-15T18:19:47;2.8;2.4;1.6
76045;PMS7003;64741;41.730;44.788;2022-11-15T18:24:45;4;3.2;2
76045;PMS7003;64741;41.730;44.788;2022-11-15T18:29:45;3.8;2.8;1.6
76045;PMS7003;64741;41.730;44.788;2022-11-15T18:34:43;3.8;3;1.8
76045;PMS7003;64741;41.730;44.788;2022-11-15T18:39:41;2.8;2.2;1.4
76045;PMS7003;64741;41.730;44.788;2022-11-15T18:44:45;4.2;2.8;1.8
76045;PMS7003;64741;41.730;44.788;2022-11-15T18:49:47;3;2.6;2
76045;PMS7003;64741;41.730;44.788;2022-11-15T18:54:47;3.4;2.6;1.8
76045;PMS7003;64741;41.730;44.788;2022-11-15T18:59:43;3.2;2.4;1.6
76045;PMS7003;64741;41.730;44.788;2022-11-15T19:04:43;2.6;2;1.6
76045;PMS7003;64741;41.730;44.788;2022-11-15T19:09:45;2.4;2;1.6
76045;PMS7003;64741;41.730;44.788;2022-11-15T19:14:33;2.4;2.4;1.4
76045;PMS7003;64741;41.730;44.788;2022-11-15T19:19:45;3;2.6;1.8
76045;PMS7003;64741;41.730;44.788;2022-11-15T19:24:27;3.2;2.6;2
76045;PMS7003;64741;41.730;44.788;2022-11-15T19:29:43;3.6;2.6;1.8
76045;PMS7003;64741;41.730;44.788;2022-11-15T19:34:48;3.6;2.2;1.2
76045;PMS7003;64741;41.730;44.788;2022-11-15T19:39:47;3;2.2;1.6
76045;PMS7003;64741;41.730;44.788;2022-11-15T19:44:47;2.4;2.2;1.2
76045;PMS7003;64741;41.730;44.788;2022-11-15T19:49:43;2.6;2.2;1.6
76045;PMS7003;64741;41.730;44.788;2022-11-15T19:54:43;3.2;2.6;1.2
76045;PMS7003;64741;41.730;44.788;2022-11-15T19:59:45;2.8;2;0.8
76045;PMS7003;64741;41.730;44.788;2022-11-15T20:04:47;3.2;2;1
76045;PMS7003;64741;41.730;44.788;2022-11-15T20:09:45;3.6;2.2;1.6
76045;PMS7003;64741;41.730;44.788;2022-11-15T20:14:47;2.8;2.2;1.4
76045;PMS7003;64741;41.730;44.788;2022-11-15T20:19:45;2.6;2.2;1.4
76045;PMS7003;64741;41.730;44.788;2022-11-15T20:24:43;4.4;3.2;1.8
76045;PMS7003;64741;41.730;44.788;2022-11-15T20:29:47;2.6;2.2;1.4
76045;PMS7003;64741;41.730;44.788;2022-11-15T20:34:45;4.2;2.4;1.8
76045;PMS7003;64741;41.730;44.788;2022-11-15T20:39:47;4.6;3.4;2.4
76045;PMS7003;64741;41.730;44.788;2022-11-15T20:44:43;3.4;3;2.2
76045;PMS7003;64741;41.730;44.788;2022-11-15T20:49:45;3;2.8;1.8
76045;PMS7003;64741;41.730;44.788;2022-11-15T20:54:47;3.2;2.8;2.4
76045;PMS7003;64741;41.730;44.788;2022-11-15T20:59:46;4.8;3.6;2.4
76045;PMS7003;64741;41.730;44.788;2022-11-15T21:04:45;5;4;3
76045;PMS7003;64741;41.730;44.788;2022-11-15T21:09:45;4.2;3.8;2.6
76045;PMS7003;64741;41.730;44.788;2022-11-15T21:14:43;4.4;4.4;3.6
76045;PMS7003;64741;41.730;44.788;2022-11-15T21:19:33;5.2;4.2;3.2
76045;PMS7003;64741;41.730;44.788;2022-11-15T21:24:47;3.8;3.6;2.8
76045;PMS7003;64741;41.730;44.788;2022-11-15T21:29:43;6;5;3.4
76045;PMS7003;64741;41.730;44.788;2022-11-15T21:34:45;5.6;5.2;3
76045;PMS7003;64741;41.730;44.788;2022-11-15T21:39:43;5.6;5;3.4
76045;PMS7003;64741;41.730;44.788;2022-11-15T21:44:45;6;5.4;4.4
76045;PMS7003;64741;41.730;44.788;2022-11-15T21:49:31;5.4;4.4;3.4
76045;PMS7003;64741;41.730;44.788;2022-11-15T21:54:31;5.2;4.4;2.8
76045;PMS7003;64741;41.730;44.788;2022-11-15T21:59:39;4.2;4.2;2.8
76045;PMS7003;64741;41.730;44.788;2022-11-15T22:04:39;4.6;4.2;3.4
76045;PMS7003;64741;41.730;44.788;2022-11-15T22:09:43;5;4.6;3.6
76045;PMS7003;64741;41.730;44.788;2022-11-15T22:14:41;4.8;3.8;2.6
76045;PMS7003;64741;41.730;44.788;2022-11-15T22:19:43;3.8;3;1.8
76045;PMS7003;64741;41.730;44.788;2022-11-15T22:24:39;4.8;4.4;3.2
76045;PMS7003;64741;41.730;44.788;2022-11-15T22:29:37;3.4;3.2;2
76045;PMS7003;64741;41.730;44.788;2022-11-15T22:34:43;4.2;3.6;2.2
76045;PMS7003;64741;41.730;44.788;2022-11-15T22:39:43;4.4;4.2;3
76045;PMS7003;64741;41.730;44.788;2022-11-15T22:44:41;4;3.4;2.6
76045;PMS7003;64741;41.730;44.788;2022-11-15T22:49:43;4.6;3.8;2.4
76045;PMS7003;64741;41.730;44.788;2022-11-15T22:54:39;3.2;2.8;2.2
76045;PMS7003;64741;41.730;44.788;2022-11-15T22:59:43;3.2;3.2;2
76045;PMS7003;64741;41.730;44.788;2022-11-15T23:04:39;4.2;3.4;2.2
76045;PMS7003;64741;41.730;44.788;2022-11-15T23:09:43;4.8;3.6;2.4
76045;PMS7003;64741;41.730;44.788;2022-11-15T23:14:39;4.4;3;2
76045;PMS7003;64741;41.730;44.788;2022-11-15T23:19:43;4.3;3;2
76045;PMS7003;64741;41.730;44.788;2022-11-15T23:24:43;3.2;2.8;2.2
76045;PMS7003;64741;41.730;44.788;2022-11-15T23:29:41;2.6;2.2;1.8
76045;PMS7003;64741;41.730;44.788;2022-11-15T23:34:44;2.6;2.4;2
76045;PMS7003;64741;41.730;44.788;2022-11-15T23:39:39;2.4;2.4;1.6
76045;PMS7003;64741;41.730;44.788;2022-11-15T23:44:41;4.4;3.2;1.8
76045;PMS7003;64741;41.730;44.788;2022-11-15T23:49:29;4;3.2;2.2
76045;PMS7003;64741;41.730;44.788;2022-11-15T23:54:43;2.8;2.6;1.4
76045;PMS7003;64741;41.730;44.788;2022-11-15T23:59:41;2.8;2.2;1.4
